Time;durP1;ratioP1;P1;durP2;ratioP2;P2;SDS_P1;SDS_P2;PMS_P1;PMS_P2;Temp;Humidity;BMP_temperature;BMP_pressure;BME280_temperature;BME280_humidity;BME280_pressure;Samples;Min_cycle;Max_cycle;Signal;HPM_P1;HPM_P2
2022/05/02 00:24:58;;;;;;;2.17;0.20;;;;;;;;;;8392947;28;20446;-38
2022/05/02 00:28:59;;;;;;;0.63;0.22;;;;;;;;;;8344032;28;139167;-38
2022/05/02 00:33:00;;;;;;;0.10;0.10;;;;;;;;;;8327772;28;20056;-39
2022/05/02 00:37:01;;;;;;;0.40;0.20;;;;;;;;;;8327661;28;20030;-39
2022/05/02 00:41:02;;;;;;;0.60;0.13;;;;;;;;;;8315982;28;20023;-38
2022/05/02 00:45:14;;;;;;;6.03;0.22;;;;;;;;;;8294362;28;20026;-38
2022/05/02 00:49:15;;;;;;;8.82;0.30;;;;;;;;;;8294770;28;20392;-38
2022/05/02 00:53:21;;;;;;;0.20;0.20;;;;;;;;;;8294324;28;20026;-38
2022/05/02 00:57:22;;;;;;;0.35;0.20;;;;;;;;;;8294367;28;20110;-38
2022/05/02 01:01:23;;;;;;;0.30;0.30;;;;;;;;;;8294604;28;20113;-38
2022/05/02 01:05:24;;;;;;;0.28;0.20;;;;;;;;;;8294205;28;20512;-38
2022/05/02 01:09:25;;;;;;;0.30;0.30;;;;;;;;;;8293794;28;20057;-39
2022/05/02 01:13:39;;;;;;;0.10;0.10;;;;;;;;;;8294000;28;20027;-38
2022/05/02 01:17:41;;;;;;;0.73;0.40;;;;;;;;;;8293316;28;20033;-38
2022/05/02 01:21:44;;;;;;;1.75;0.38;;;;;;;;;;8276711;28;20137;-38
2022/05/02 01:25:45;;;;;;;0.70;0.40;;;;;;;;;;8260949;28;20022;-38
2022/05/02 01:29:46;;;;;;;1.08;0.30;;;;;;;;;;8260640;28;20092;-38
2022/05/02 01:33:47;;;;;;;;;;;;;;;;;;8253256;28;20058;-38
2022/05/02 01:37:48;;;;;;;0.63;0.37;;;;;;;;;;8239323;28;20005;-38
2022/05/02 01:41:49;;;;;;;1.35;0.40;;;;;;;;;;8239240;28;20160;-38
2022/05/02 01:45:50;;;;;;;0.43;0.40;;;;;;;;;;8239209;28;20022;-38
2022/05/02 01:49:51;;;;;;;1.10;0.50;;;;;;;;;;8238312;28;20477;-38
2022/05/02 01:53:52;;;;;;;1.77;0.40;;;;;;;;;;8238787;28;20038;-38
2022/05/02 01:57:53;;;;;;;0.20;0.20;;;;;;;;;;8238384;28;20449;-38
2022/05/02 02:01:54;;;;;;;0.52;0.40;;;;;;;;;;8238718;28;20034;-38
2022/05/02 02:05:55;;;;;;;0.55;0.50;;;;;;;;;;8238442;28;20488;-38
2022/05/02 02:09:56;;;;;;;1.05;0.40;;;;;;;;;;8238204;28;20077;-38
2022/05/02 02:13:56;;;;;;;0.30;0.30;;;;;;;;;;8238237;28;20035;-38
2022/05/02 02:17:57;;;;;;;0.40;0.40;;;;;;;;;;8238516;28;20058;-38
2022/05/02 02:22:16;;;;;;;0.38;0.30;;;;;;;;;;8237267;28;20521;-38
2022/05/02 02:26:17;;;;;;;2.28;0.40;;;;;;;;;;8237604;28;20034;-38
2022/05/02 02:30:19;;;;;;;0.47;0.40;;;;;;;;;;8237688;28;20106;-38
2022/05/02 02:34:20;;;;;;;1.88;0.50;;;;;;;;;;8237896;28;20114;-38
2022/05/02 02:38:20;;;;;;;0.30;0.30;;;;;;;;;;8237464;28;20038;-38
2022/05/02 02:42:22;;;;;;;0.35;0.20;;;;;;;;;;8238012;28;20038;-38
2022/05/02 02:46:23;;;;;;;0.50;0.47;;;;;;;;;;8236341;28;20069;-38
2022/05/02 02:50:24;;;;;;;0.52;0.47;;;;;;;;;;8237085;28;20051;-38
2022/05/02 02:54:25;;;;;;;1.85;0.40;;;;;;;;;;8236969;28;20047;-38
2022/05/02 02:58:26;;;;;;;0.75;0.50;;;;;;;;;;8236660;28;20030;-38
2022/05/02 03:02:27;;;;;;;0.30;0.30;;;;;;;;;;8236114;28;20038;-38
2022/05/02 03:06:30;;;;;;;0.50;0.50;;;;;;;;;;8236388;28;20050;-38
2022/05/02 03:10:31;;;;;;;0.30;0.30;;;;;;;;;;8236588;28;20077;-38
2022/05/02 03:14:31;;;;;;;0.40;0.40;;;;;;;;;;8236076;28;20142;-38
2022/05/02 03:18:34;;;;;;;0.40;0.40;;;;;;;;;;8236046;28;20078;-38
2022/05/02 03:22:35;;;;;;;0.50;0.40;;;;;;;;;;8235585;28;20089;-38
2022/05/02 03:26:36;;;;;;;1.85;0.55;;;;;;;;;;8236392;28;20027;-38
2022/05/02 03:30:37;;;;;;;0.68;0.40;;;;;;;;;;8236293;28;20086;-38
2022/05/02 03:34:38;;;;;;;0.40;0.40;;;;;;;;;;8235067;28;20031;-38
2022/05/02 03:38:39;;;;;;;0.45;0.30;;;;;;;;;;8235525;28;20031;-38
2022/05/02 03:42:40;;;;;;;0.60;0.35;;;;;;;;;;8236077;28;20030;-38
2022/05/02 03:46:41;;;;;;;0.52;0.30;;;;;;;;;;8235507;28;20106;-37
2022/05/02 03:50:42;;;;;;;0.63;0.40;;;;;;;;;;8234912;28;20018;-38
2022/05/02 03:54:43;;;;;;;0.45;0.40;;;;;;;;;;8235182;28;20035;-38
2022/05/02 03:58:44;;;;;;;0.30;0.30;;;;;;;;;;8235270;28;20038;-38
2022/05/02 04:02:45;;;;;;;0.40;0.40;;;;;;;;;;8235216;28;20031;-38
2022/05/02 04:06:47;;;;;;;0.50;0.50;;;;;;;;;;8235218;28;20042;-38
2022/05/02 04:10:48;;;;;;;0.40;0.30;;;;;;;;;;8235006;28;20029;-37
2022/05/02 04:14:49;;;;;;;0.30;0.30;;;;;;;;;;8234734;28;20477;-37
2022/05/02 04:18:50;;;;;;;0.40;0.40;;;;;;;;;;8234661;28;20114;-37
2022/05/02 04:22:51;;;;;;;0.40;0.40;;;;;;;;;;8234584;28;20103;-37
2022/05/02 04:26:52;;;;;;;0.30;0.30;;;;;;;;;;8234396;28;20054;-38
2022/05/02 04:30:53;;;;;;;0.45;0.35;;;;;;;;;;8234784;28;20035;-38
2022/05/02 04:34:56;;;;;;;0.28;0.28;;;;;;;;;;8234492;28;20113;-38
2022/05/02 04:38:56;;;;;;;0.40;0.40;;;;;;;;;;8234275;28;20466;-38
2022/05/02 04:42:57;;;;;;;5.38;0.40;;;;;;;;;;8234639;28;20066;-38
2022/05/02 04:46:58;;;;;;;0.40;0.40;;;;;;;;;;8234052;28;20102;-38
2022/05/02 04:50:59;;;;;;;2.15;0.40;;;;;;;;;;8234593;28;20478;-38
2022/05/02 04:55:00;;;;;;;7.47;0.60;;;;;;;;;;8238094;28;20121;-38
2022/05/02 04:59:01;;;;;;;5.93;0.50;;;;;;;;;;8190750;28;20525;-38
2022/05/02 05:03:05;;;;;;;3.50;0.57;;;;;;;;;;8202278;29;20111;-37
2022/05/02 05:07:07;;;;;;;8.75;0.70;;;;;;;;;;8201757;28;20507;-38
2022/05/02 05:11:23;;;;;;;1.92;0.40;;;;;;;;;;8207308;28;20110;-37
2022/05/02 05:19:49;;;;;;;0.43;0.30;;;;;;;;;;8207441;28;20512;-38
2022/05/02 05:23:57;;;;;;;0.35;0.35;;;;;;;;;;8207424;29;20063;-37
2022/05/02 05:27:58;;;;;;;0.77;0.50;;;;;;;;;;8207271;28;20505;-37
2022/05/02 05:32:18;;;;;;;0.40;0.40;;;;;;;;;;8207297;28;20106;-38
2022/05/02 05:36:25;;;;;;;3.03;0.50;;;;;;;;;;8207523;28;20110;-37
2022/05/02 05:40:29;;;;;;;4.63;0.40;;;;;;;;;;8207044;29;20467;-38
2022/05/02 05:44:37;;;;;;;1.05;0.60;;;;;;;;;;8206832;28;20045;-37
2022/05/02 05:48:56;;;;;;;0.47;0.45;;;;;;;;;;8207123;28;20081;-38
2022/05/02 05:53:06;;;;;;;4.00;0.60;;;;;;;;;;8175519;29;20554;-38
2022/05/02 05:57:10;;;;;;;1.58;0.47;;;;;;;;;;8204116;29;20031;-37
2022/05/02 06:01:12;;;;;;;1.73;0.60;;;;;;;;;;8206315;29;20031;-37
2022/05/02 06:05:13;;;;;;;1.58;0.60;;;;;;;;;;8206621;28;20500;-37
2022/05/02 06:09:15;;;;;;;0.35;0.35;;;;;;;;;;8206697;28;20042;-38
2022/05/02 06:13:17;;;;;;;2.50;0.50;;;;;;;;;;8205519;29;20561;-38
2022/05/02 06:21:41;;;;;;;0.77;0.40;;;;;;;;;;8205465;28;20182;-37
2022/05/02 06:25:44;;;;;;;0.40;0.40;;;;;;;;;;8205771;28;20027;-38
2022/05/02 06:29:45;;;;;;;2.45;0.90;;;;;;;;;;8205634;28;20466;-38
2022/05/02 06:33:48;;;;;;;8.32;1.30;;;;;;;;;;8204719;28;20035;-38
2022/05/02 06:37:58;;;;;;;4.15;1.55;;;;;;;;;;8205552;28;20052;-38
2022/05/02 06:42:20;;;;;;;6.10;1.08;;;;;;;;;;8204924;28;20057;-38
2022/05/02 06:46:43;;;;;;;1.48;0.98;;;;;;;;;;8204252;28;20020;-38
2022/05/02 06:50:48;;;;;;;2.22;1.25;;;;;;;;;;8205385;28;20030;-38
2022/05/02 06:54:55;;;;;;;2.47;1.10;;;;;;;;;;8205356;28;20090;-38
2022/05/02 06:59:15;;;;;;;3.10;0.90;;;;;;;;;;8204939;29;20035;-38
2022/05/02 07:03:35;;;;;;;2.25;0.80;;;;;;;;;;8204047;29;20031;-38
2022/05/02 07:07:36;;;;;;;2.25;0.70;;;;;;;;;;8204869;29;20028;-38
2022/05/02 07:11:40;;;;;;;1.27;0.88;;;;;;;;;;8204752;29;20027;-38
2022/05/02 07:15:42;;;;;;;3.40;0.90;;;;;;;;;;8204431;29;20479;-38
2022/05/02 07:19:50;;;;;;;1.75;0.70;;;;;;;;;;8204688;29;20027;-38
2022/05/02 07:23:54;;;;;;;3.83;0.82;;;;;;;;;;8204253;28;20059;-38
2022/05/02 07:27:54;;;;;;;2.17;0.47;;;;;;;;;;8204377;29;20031;-38
2022/05/02 07:31:56;;;;;;;0.40;0.40;;;;;;;;;;8203524;28;20110;-38
2022/05/02 07:35:57;;;;;;;;;;;;;;;;;;8204683;28;20257;-38
2022/05/02 07:39:58;;;;;;;0.57;0.57;;;;;;;;;;8202702;29;19914;-38
2022/05/02 07:44:06;;;;;;;0.73;0.40;;;;;;;;;;8203827;28;20123;-37
